Main page
METAR-TAF:

METAR-TAF

Airports :

Dubai, United Arab Emirates

Dubai International Airport

latitude: 25-15-10N, longitude: 055-21-52E, elevation: 8 m

Current weather observation

The report was made 28 minutes ago, at 20:00 UTC
Wind 5 kt from the East, varying between East/Northeast and Southeast
Temperature 34°C
Humidity 32%
Pressure 1008 hPa
Visibility 10 km or more
no clouds below 1500 m and no cumulonimbus

METAR: OMDB 302000Z 10005KT 060V140 CAVOK 34/15 Q1008 NOSIG

Time: 00:28 (20:28 UTC)

Forecast

The report was made 3 hours and 32 minutes ago, at 16:56 UTC
Forecast valid from 30 at 18 UTC to 02 at 00 UTC
Wind 5 kt from the East/Southeast
Visibility: 8000 m
Becoming
from 01 at 03 UTC to 01 at 05 UTC
Wind 10 kt from the South/Southwest
Becoming
from 01 at 06 UTC to 01 at 08 UTC
Wind 16 kt from the West/Northwest
Becoming
from 01 at 15 UTC to 01 at 17 UTC
Wind 2 kt from variable directions

TAF: OMDB 301656Z 3018/0200 12005KT 8000 NSC BECMG 0103/0105 20010KT BECMG 0106/0108 30016KT BECMG 0115/0117 VRB02KT

Weather observations and forecasts of more than 4000 airports (METAR and TAF reports).

The available stations are represented by yellow and red dots on the map.

Hover mouse over dot to see the name of the station.

Then click to see weather observations and forecasts.

To change the map : click on the green buttons with a black cross to zoom in, on the green button with a dash to zoom out, or on the green arrows for adjacent maps.


METAR-TAF: